Time;durP1;ratioP1;P1;durP2;ratioP2;P2;SDS_P1;SDS_P2;PMS_P1;PMS_P2;Temp;Humidity;BMP_temperature;BMP_pressure;BME280_temperature;BME280_humidity;BME280_pressure;Samples;Min_cycle;Max_cycle;Signal;HPM_P1;HPM_P2
2020/12/04 00:00:53;;;;;;;22.50;11.93;;;1.80;99.90;;;;;;5096331;28;20179;-64
2020/12/04 00:03:18;;;;;;;19.23;11.23;;;1.70;99.90;;;;;;5095523;28;20181;-63
2020/12/04 00:05:44;;;;;;;21.35;11.75;;;1.70;99.90;;;;;;5096749;28;20439;-64
2020/12/04 00:08:09;;;;;;;21.08;11.57;;;1.70;99.90;;;;;;5096173;28;20186;-64
2020/12/04 00:10:35;;;;;;;19.35;10.98;;;1.70;99.90;;;;;;5096114;28;20163;-64
2020/12/04 00:13:00;;;;;;;22.77;11.55;;;1.70;99.90;;;;;;5095995;28;20240;-64
2020/12/04 00:15:26;;;;;;;21.98;11.85;;;1.80;99.90;;;;;;5096230;28;20621;-63
2020/12/04 00:17:51;;;;;;;21.90;11.63;;;1.70;99.90;;;;;;5096145;28;20542;-63
2020/12/04 00:20:17;;;;;;;20.17;11.20;;;1.70;99.90;;;;;;5096169;28;20186;-63
2020/12/04 00:22:43;;;;;;;21.33;11.45;;;1.70;99.90;;;;;;5095777;28;20247;-63
2020/12/04 00:25:08;;;;;;;21.50;11.13;;;1.70;99.90;;;;;;5095841;28;20167;-64
2020/12/04 00:27:34;;;;;;;21.83;11.95;;;1.70;99.90;;;;;;5095831;28;20216;-63
2020/12/04 00:29:59;;;;;;;22.10;10.98;;;1.70;99.90;;;;;;5096054;28;20274;-63
2020/12/04 00:32:25;;;;;;;20.77;11.43;;;1.70;99.90;;;;;;5095615;28;20175;-64
2020/12/04 00:34:50;;;;;;;22.48;11.88;;;1.70;99.90;;;;;;5095900;28;20164;-64
2020/12/04 00:37:16;;;;;;;23.08;11.90;;;1.60;99.90;;;;;;5095740;28;20524;-64
2020/12/04 00:39:41;;;;;;;23.88;11.70;;;1.60;99.90;;;;;;5095872;28;20246;-63
2020/12/04 00:42:07;;;;;;;22.38;11.98;;;1.60;99.90;;;;;;5095718;28;20240;-63
2020/12/04 00:44:32;;;;;;;18.95;10.75;;;1.50;99.90;;;;;;5095760;28;20531;-63
2020/12/04 00:47:01;;;;;;;20.52;11.18;;;1.50;99.90;;;;;;5095929;28;20258;-63
2020/12/04 00:49:27;;;;;;;19.60;11.35;;;1.40;99.90;;;;;;5095325;28;20514;-63
2020/12/04 00:51:53;;;;;;;24.52;12.10;;;1.30;99.90;;;;;;5095268;28;20199;-63
2020/12/04 00:54:18;;;;;;;20.80;11.38;;;1.20;99.90;;;;;;5095730;28;20542;-63
2020/12/04 00:56:44;;;;;;;22.30;12.02;;;1.10;99.90;;;;;;5095260;28;20179;-64
2020/12/04 00:59:09;;;;;;;22.02;11.55;;;1.10;99.90;;;;;;5095235;28;20174;-63
2020/12/04 01:01:35;;;;;;;21.35;11.35;;;1.00;99.90;;;;;;5095253;28;20163;-63
2020/12/04 01:04:00;;;;;;;21.92;11.90;;;0.90;99.90;;;;;;5095105;28;20254;-64
2020/12/04 01:06:26;;;;;;;22.05;11.93;;;0.80;99.90;;;;;;5095215;28;20225;-64
2020/12/04 01:08:51;;;;;;;22.45;11.40;;;0.70;99.90;;;;;;5095124;28;20182;-64
2020/12/04 01:11:22;;;;;;;21.02;11.00;;;0.60;99.90;;;;;;5095407;28;20171;-63
2020/12/04 01:13:48;;;;;;;21.05;11.45;;;0.60;99.90;;;;;;5095266;28;20160;-63
2020/12/04 01:16:14;;;;;;;26.13;12.65;;;0.50;99.90;;;;;;5095025;28;20626;-64
2020/12/04 01:18:40;;;;;;;22.48;11.48;;;0.50;99.90;;;;;;5094972;28;20171;-63
2020/12/04 01:21:06;;;;;;;22.60;12.32;;;0.40;99.90;;;;;;5095530;28;20167;-63
2020/12/04 01:23:32;;;;;;;24.42;11.63;;;0.30;99.90;;;;;;5095115;28;20184;-63
2020/12/04 01:25:57;;;;;;;22.45;11.75;;;0.30;99.90;;;;;;5095473;28;20621;-63
2020/12/04 01:28:23;;;;;;;22.20;12.10;;;0.30;99.90;;;;;;5094863;28;20189;-64
2020/12/04 01:30:48;;;;;;;22.92;12.55;;;0.20;99.90;;;;;;5095097;28;20217;-64
2020/12/04 01:33:14;;;;;;;21.05;11.43;;;0.20;99.90;;;;;;5095244;28;20191;-63
2020/12/04 01:35:39;;;;;;;24.08;12.48;;;0.20;99.90;;;;;;5100110;28;20183;-63
2020/12/04 01:38:05;;;;;;;24.30;11.73;;;0.10;99.90;;;;;;5101292;28;20167;-64
2020/12/04 01:40:33;;;;;;;27.20;13.13;;;0.10;99.90;;;;;;5100512;28;20159;-64
2020/12/04 01:42:59;;;;;;;25.65;12.70;;;0.10;99.90;;;;;;5103803;28;20163;-63
2020/12/04 01:45:24;;;;;;;25.88;12.63;;;0.00;99.90;;;;;;5103253;28;20172;-64
2020/12/04 01:47:51;;;;;;;26.20;12.68;;;0.00;99.90;;;;;;5104849;28;20469;-63
2020/12/04 01:50:17;;;;;;;25.00;12.40;;;0.00;99.90;;;;;;5107133;28;20160;-63
2020/12/04 01:52:42;;;;;;;26.50;13.52;;;0.00;99.90;;;;;;5108796;28;20171;-63
2020/12/04 01:55:08;;;;;;;27.85;14.32;;;-0.10;99.90;;;;;;5095039;28;20171;-64
2020/12/04 01:57:37;;;;;;;28.50;13.32;;;-0.10;99.90;;;;;;5094498;28;20187;-63
2020/12/04 02:00:03;;;;;;;30.75;14.68;;;-0.10;99.90;;;;;;5094557;28;20173;-63
2020/12/04 02:02:28;;;;;;;29.27;14.25;;;-0.20;99.90;;;;;;5094780;28;20172;-63
2020/12/04 02:04:54;;;;;;;26.13;13.35;;;-0.20;99.90;;;;;;5094447;28;20209;-63
2020/12/04 02:07:45;;;;;;;29.95;14.15;;;-0.20;99.90;;;;;;5094274;28;20178;-63
2020/12/04 02:10:33;;;;;;;28.65;13.77;;;-0.30;99.90;;;;;;5093954;28;20174;-63
2020/12/04 02:13:00;;;;;;;30.40;13.85;;;-0.30;99.90;;;;;;5093453;28;20603;-63
2020/12/04 02:15:25;;;;;;;26.48;13.93;;;-0.30;99.90;;;;;;5093466;28;20186;-63
2020/12/04 02:17:56;;;;;;;26.75;12.93;;;-0.40;99.90;;;;;;5094647;28;20591;-64
2020/12/04 02:20:21;;;;;;;28.77;14.20;;;-0.40;99.90;;;;;;5094404;28;20152;-63
2020/12/04 02:22:47;;;;;;;27.20;14.30;;;-0.40;99.90;;;;;;5097871;28;20527;-63
2020/12/04 02:25:12;;;;;;;29.38;13.80;;;-0.40;99.90;;;;;;5098477;28;20185;-64
2020/12/04 02:27:48;;;;;;;28.95;14.10;;;-0.40;99.90;;;;;;5097128;28;20175;-63
2020/12/04 02:30:28;;;;;;;26.65;14.27;;;-0.40;99.90;;;;;;5098007;28;20159;-65
2020/12/04 02:32:54;;;;;;;26.52;13.55;;;-0.40;99.90;;;;;;5098412;28;20158;-63
2020/12/04 02:35:19;;;;;;;26.35;13.43;;;-0.40;99.90;;;;;;5097832;28;20164;-64
2020/12/04 02:37:45;;;;;;;29.67;14.25;;;-0.40;99.90;;;;;;5097917;28;20206;-63
2020/12/04 02:40:10;;;;;;;26.67;13.20;;;-0.40;99.90;;;;;;5097944;28;20192;-64
2020/12/04 02:42:36;;;;;;;26.45;13.93;;;-0.40;99.90;;;;;;5097799;28;20168;-63
2020/12/04 02:45:02;;;;;;;28.17;14.68;;;-0.40;99.90;;;;;;5097605;28;20560;-62
2020/12/04 02:47:28;;;;;;;31.02;14.82;;;-0.40;99.90;;;;;;5098012;28;20247;-64
2020/12/04 02:49:53;;;;;;;30.00;14.48;;;-0.40;99.90;;;;;;5097564;28;20187;-62
2020/12/04 02:52:21;;;;;;;30.67;14.32;;;-0.40;99.90;;;;;;5098194;28;20168;-64
2020/12/04 02:54:46;;;;;;;28.67;14.98;;;-0.40;99.90;;;;;;5097564;28;20166;-63
2020/12/04 02:57:12;;;;;;;32.13;15.07;;;-0.40;99.90;;;;;;5098022;28;20282;-64
2020/12/04 02:59:37;;;;;;;31.92;14.75;;;-0.50;99.90;;;;;;5097439;28;20172;-64
2020/12/04 03:02:03;;;;;;;33.70;15.55;;;-0.40;99.90;;;;;;5097418;28;20159;-63
2020/12/04 03:04:29;;;;;;;29.55;14.77;;;-0.50;99.90;;;;;;5097599;28;20159;-63
2020/12/04 03:06:54;;;;;;;30.15;15.30;;;-0.50;99.90;;;;;;5097284;28;20174;-63
2020/12/04 03:09:19;;;;;;;28.98;15.20;;;-0.50;99.90;;;;;;5096582;28;20178;-63
2020/12/04 03:11:45;;;;;;;29.55;14.30;;;-0.50;99.90;;;;;;5097193;28;20705;-64
2020/12/04 03:14:10;;;;;;;29.50;14.65;;;-0.50;99.90;;;;;;5097380;28;20220;-64
2020/12/04 03:16:36;;;;;;;27.27;14.02;;;-0.50;99.90;;;;;;5097082;28;20187;-64
2020/12/04 03:19:01;;;;;;;30.27;14.30;;;-0.50;99.90;;;;;;5097317;28;20167;-64
2020/12/04 03:21:27;;;;;;;29.63;14.63;;;-0.60;99.90;;;;;;5097179;28;20255;-64
2020/12/04 03:23:53;;;;;;;29.20;14.93;;;-0.60;99.90;;;;;;5096867;28;20172;-64
2020/12/04 03:26:18;;;;;;;29.20;14.02;;;-0.50;99.90;;;;;;5097053;28;20494;-63
2020/12/04 03:28:44;;;;;;;32.17;14.90;;;-0.60;99.90;;;;;;5097440;28;20167;-63
2020/12/04 03:31:09;;;;;;;35.17;14.95;;;-0.60;99.90;;;;;;5097139;28;20171;-63
2020/12/04 03:33:35;;;;;;;26.85;14.70;;;-0.60;99.90;;;;;;5095738;28;20163;-64
2020/12/04 03:36:00;;;;;;;31.23;15.68;;;-0.60;99.90;;;;;;5096640;28;20591;-64
2020/12/04 03:38:26;;;;;;;29.00;14.52;;;-0.60;99.90;;;;;;5096762;28;20171;-65
2020/12/04 03:40:51;;;;;;;31.08;14.02;;;-0.60;99.90;;;;;;5097024;28;20259;-64
2020/12/04 03:43:17;;;;;;;30.83;14.63;;;-0.70;99.90;;;;;;5096587;28;20193;-63
2020/12/04 03:45:42;;;;;;;31.58;14.73;;;-0.70;99.90;;;;;;5096827;28;20199;-63
2020/12/04 03:48:08;;;;;;;32.00;15.27;;;-0.70;99.90;;;;;;5096796;28;20247;-64
2020/12/04 03:50:33;;;;;;;31.65;14.23;;;-0.70;99.90;;;;;;5096694;28;20168;-63
2020/12/04 03:52:59;;;;;;;32.38;15.13;;;-0.70;99.90;;;;;;5096471;28;20456;-63
2020/12/04 03:55:24;;;;;;;33.08;15.60;;;-0.70;99.90;;;;;;5096357;28;20175;-63
2020/12/04 03:57:50;;;;;;;34.22;15.43;;;-0.70;99.90;;;;;;5096641;28;20183;-63
2020/12/04 04:00:15;;;;;;;31.63;15.57;;;-0.80;99.90;;;;;;5096368;28;20167;-64
2020/12/04 04:02:41;;;;;;;29.67;15.65;;;-0.80;99.90;;;;;;5096603;28;20156;-63
2020/12/04 04:05:06;;;;;;;31.02;15.40;;;-0.80;99.90;;;;;;5096138;28;20164;-63
2020/12/04 04:07:32;;;;;;;31.77;15.20;;;-0.80;99.90;;;;;;5096423;28;20176;-64
2020/12/04 04:09:57;;;;;;;30.58;15.30;;;-0.80;99.90;;;;;;5096004;28;20232;-63
2020/12/04 04:12:23;;;;;;;32.03;15.52;;;-0.80;99.90;;;;;;5096063;28;20171;-63
2020/12/04 04:14:48;;;;;;;29.00;15.18;;;-0.80;99.90;;;;;;5096351;28;20171;-63
2020/12/04 04:17:14;;;;;;;32.78;15.05;;;-0.80;99.90;;;;;;5095916;28;20191;-63
2020/12/04 04:19:39;;;;;;;30.80;14.98;;;-0.90;99.90;;;;;;5095832;28;20221;-63
2020/12/04 04:22:05;;;;;;;32.63;15.07;;;-0.90;99.90;;;;;;5096400;28;20240;-63
2020/12/04 04:24:30;;;;;;;28.92;14.77;;;-0.90;99.90;;;;;;5096241;28;20172;-63
2020/12/04 04:26:56;;;;;;;30.08;15.50;;;-0.90;99.90;;;;;;5096066;28;20163;-64
2020/12/04 04:29:21;;;;;;;33.50;14.95;;;-0.90;99.90;;;;;;5096562;28;20175;-64
2020/12/04 04:31:51;;;;;;;33.85;14.98;;;-0.90;99.90;;;;;;5096012;28;20171;-64
2020/12/04 04:34:17;;;;;;;34.65;15.95;;;-0.90;99.90;;;;;;5095731;28;20175;-63
2020/12/04 04:36:43;;;;;;;31.15;14.85;;;-1.00;99.90;;;;;;5094533;28;20182;-63
2020/12/04 04:39:09;;;;;;;35.03;15.65;;;-0.90;99.90;;;;;;5095661;28;20174;-63
2020/12/04 04:41:34;;;;;;;32.20;15.65;;;-1.00;99.90;;;;;;5095365;28;20168;-64
2020/12/04 04:44:00;;;;;;;31.08;14.48;;;-0.90;99.90;;;;;;5095458;28;20163;-63
2020/12/04 04:46:25;;;;;;;29.58;15.25;;;-0.90;99.90;;;;;;5095367;28;20194;-63
2020/12/04 04:48:54;;;;;;;30.60;14.77;;;-1.00;99.90;;;;;;5095643;28;20167;-63
2020/12/04 04:51:21;;;;;;;32.85;15.07;;;-1.00;99.90;;;;;;5094350;28;20629;-64
2020/12/04 04:53:52;;;;;;;29.15;15.02;;;-1.00;99.90;;;;;;5095482;28;20170;-63
2020/12/04 04:56:18;;;;;;;30.90;14.98;;;-1.00;99.90;;;;;;5094585;28;20180;-64
2020/12/04 04:58:43;;;;;;;30.00;14.68;;;-1.00;99.90;;;;;;5095260;28;20168;-63
2020/12/04 05:01:09;;;;;;;32.40;14.77;;;-1.00;99.90;;;;;;5095294;28;20174;-64
2020/12/04 05:03:34;;;;;;;33.97;16.10;;;-1.00;99.90;;;;;;5095582;28;20182;-64
2020/12/04 05:06:00;;;;;;;34.17;16.30;;;-1.00;99.90;;;;;;5095223;28;20171;-64
2020/12/04 05:08:25;;;;;;;34.05;15.88;;;-1.00;99.90;;;;;;5095014;28;20174;-63
2020/12/04 05:10:51;;;;;;;32.15;14.73;;;-1.00;99.90;;;;;;5095095;28;20163;-64
2020/12/04 05:13:20;;;;;;;34.08;15.23;;;-1.00;99.90;;;;;;5093771;28;20777;-64
2020/12/04 05:15:46;;;;;;;32.50;15.32;;;-1.00;99.90;;;;;;5094771;28;20210;-64
2020/12/04 05:18:17;;;;;;;28.98;15.48;;;-0.90;99.90;;;;;;5095373;28;20164;-63
2020/12/04 05:20:44;;;;;;;30.52;15.68;;;-0.90;99.90;;;;;;5094909;28;20603;-64
2020/12/04 05:23:09;;;;;;;35.25;16.33;;;-0.90;99.90;;;;;;5094730;28;20172;-64
2020/12/04 05:25:42;;;;;;;31.98;15.73;;;-0.90;99.90;;;;;;5094793;28;20159;-63
2020/12/04 05:28:10;;;;;;;32.05;16.08;;;-0.90;99.90;;;;;;5094255;28;20167;-64
2020/12/04 05:30:35;;;;;;;32.45;15.55;;;-0.90;99.90;;;;;;5095062;28;20175;-63
2020/12/04 05:33:04;;;;;;;37.47;16.45;;;-0.90;99.90;;;;;;5094759;28;20221;-64
2020/12/04 05:35:29;;;;;;;32.28;15.52;;;-0.90;99.90;;;;;;5094972;28;20205;-63
2020/12/04 05:38:13;;;;;;;33.85;16.13;;;-0.90;99.90;;;;;;5094762;28;20163;-64
2020/12/04 05:40:40;;;;;;;32.15;15.15;;;-1.00;99.90;;;;;;5094971;28;20240;-64
2020/12/04 05:43:06;;;;;;;33.50;15.43;;;-1.00;99.90;;;;;;5095219;28;20475;-63
2020/12/04 05:45:32;;;;;;;29.67;14.68;;;-1.00;99.90;;;;;;5094799;28;20194;-63
2020/12/04 05:47:58;;;;;;;34.05;15.02;;;-1.00;99.90;;;;;;5094667;28;20166;-63
2020/12/04 05:50:23;;;;;;;30.80;15.07;;;-1.00;99.90;;;;;;5094505;28;20164;-56
2020/12/04 05:52:49;;;;;;;33.50;15.65;;;-1.00;99.90;;;;;;5094043;28;20212;-58
2020/12/04 05:55:15;;;;;;;32.17;15.52;;;-1.10;99.90;;;;;;5093572;28;20159;-58
2020/12/04 05:57:43;;;;;;;36.33;16.30;;;-1.10;99.90;;;;;;5097146;28;20626;-58
2020/12/04 06:00:09;;;;;;;34.83;16.73;;;-1.10;99.90;;;;;;5098520;28;20195;-58
2020/12/04 06:02:34;;;;;;;34.15;15.68;;;-1.10;99.90;;;;;;5098378;28;20210;-58
2020/12/04 06:05:00;;;;;;;30.00;14.32;;;-1.10;99.90;;;;;;5096840;28;20168;-58
2020/12/04 06:07:27;;;;;;;32.60;15.60;;;-1.10;99.90;;;;;;5095809;28;20163;-58
2020/12/04 06:09:59;;;;;;;33.00;16.20;;;-1.10;99.90;;;;;;5100260;28;20171;-58
2020/12/04 06:12:24;;;;;;;35.30;16.38;;;-1.10;99.90;;;;;;5105020;28;20177;-59
2020/12/04 06:14:51;;;;;;;34.70;16.70;;;-1.10;99.90;;;;;;5104055;28;20262;-59
2020/12/04 06:17:16;;;;;;;32.60;16.42;;;-1.10;99.90;;;;;;5108580;28;20179;-58
2020/12/04 06:19:43;;;;;;;32.42;16.50;;;-1.10;99.90;;;;;;5107639;28;20561;-58
2020/12/04 06:22:12;;;;;;;35.30;15.15;;;-1.10;99.90;;;;;;5110898;28;20199;-59
2020/12/04 06:24:56;;;;;;;31.33;15.65;;;-1.10;99.90;;;;;;5112364;28;20164;-58
2020/12/04 06:27:47;;;;;;;32.08;16.02;;;-1.00;99.90;;;;;;5105697;28;20171;-57
2020/12/04 06:30:18;;;;;;;31.00;16.65;;;-1.00;99.90;;;;;;5098189;28;20175;-58
2020/12/04 06:32:50;;;;;;;32.45;17.17;;;-1.00;99.90;;;;;;5097865;28;20224;-59
2020/12/04 06:35:42;;;;;;;34.67;17.15;;;-0.90;99.90;;;;;;5098087;28;20177;-58
2020/12/04 06:38:33;;;;;;;31.90;16.02;;;-0.90;99.90;;;;;;5097979;28;20179;-58
2020/12/04 06:41:17;;;;;;;33.40;15.57;;;-0.80;99.90;;;;;;5097622;28;20185;-59
2020/12/04 06:43:44;;;;;;;34.72;16.08;;;-0.80;99.90;;;;;;5097743;28;20199;-58
2020/12/04 06:46:36;;;;;;;31.70;15.60;;;-0.80;99.90;;;;;;5097534;28;20179;-58
2020/12/04 06:52:12;;;;;;;29.92;16.15;;;-0.80;99.90;;;;;;5098075;28;20183;-59
2020/12/04 06:54:39;;;;;;;30.85;15.95;;;-0.70;99.90;;;;;;5097771;28;20288;-59
2020/12/04 06:57:06;;;;;;;33.53;16.75;;;-0.70;99.90;;;;;;5097668;28;20202;-58
2020/12/04 06:59:37;;;;;;;31.73;16.10;;;-0.70;99.90;;;;;;5096881;28;20177;-58
2020/12/04 07:02:11;;;;;;;29.85;15.30;;;-0.70;99.90;;;;;;5097465;28;20162;-59
2020/12/04 07:04:39;;;;;;;32.17;17.05;;;-0.60;99.90;;;;;;5097703;28;20159;-58
2020/12/04 07:07:10;;;;;;;32.15;16.83;;;-0.60;99.90;;;;;;5097093;28;20186;-59
2020/12/04 07:09:37;;;;;;;35.60;18.00;;;-0.60;99.90;;;;;;5097475;28;20148;-59
2020/12/04 07:12:03;;;;;;;34.22;17.25;;;-0.70;99.90;;;;;;5097230;28;20163;-58
2020/12/04 07:14:29;;;;;;;29.00;16.83;;;-0.70;99.90;;;;;;5097221;28;20179;-59
2020/12/04 07:16:55;;;;;;;34.38;16.95;;;-0.70;99.90;;;;;;5096557;28;20256;-59
2020/12/04 07:19:21;;;;;;;31.42;15.85;;;-0.70;99.90;;;;;;5096967;28;20174;-59
2020/12/04 07:21:47;;;;;;;29.83;15.50;;;-0.70;99.90;;;;;;5097015;28;20218;-59
2020/12/04 07:24:12;;;;;;;35.20;16.98;;;-0.70;99.90;;;;;;5097318;28;20603;-58
2020/12/04 07:26:43;;;;;;;34.10;16.42;;;-0.70;99.90;;;;;;5096756;28;20171;-58
2020/12/04 07:29:10;;;;;;;30.25;16.25;;;-0.70;99.90;;;;;;5096980;28;20239;-58
2020/12/04 07:31:35;;;;;;;28.92;15.93;;;-0.70;99.90;;;;;;5096682;28;20529;-58
2020/12/04 07:34:01;;;;;;;32.50;16.20;;;-0.60;99.90;;;;;;5096655;28;20243;-58
2020/12/04 07:36:27;;;;;;;33.25;17.25;;;-0.60;99.90;;;;;;5096665;28;20215;-58
2020/12/04 07:38:57;;;;;;;34.53;17.83;;;-0.60;99.90;;;;;;5096495;28;20246;-58
2020/12/04 07:41:38;;;;;;;32.50;16.70;;;-0.60;99.90;;;;;;5096680;28;20251;-58
2020/12/04 07:44:10;;;;;;;35.80;18.08;;;-0.60;99.90;;;;;;5096398;28;20564;-58
2020/12/04 07:46:36;;;;;;;28.50;15.40;;;-0.60;99.90;;;;;;5096930;28;20197;-59
2020/12/04 07:49:07;;;;;;;30.50;16.52;;;-0.60;99.90;;;;;;5096756;28;20175;-58
2020/12/04 07:51:37;;;;;;;30.75;16.83;;;-0.60;99.90;;;;;;5096570;28;20167;-59
2020/12/04 07:54:17;;;;;;;32.53;16.30;;;-0.50;99.90;;;;;;5096539;28;20168;-58
2020/12/04 07:56:53;;;;;;;29.35;16.17;;;-0.50;99.90;;;;;;5096146;28;20264;-58
2020/12/04 07:59:25;;;;;;;31.35;17.58;;;-0.50;99.90;;;;;;5095540;28;20482;-58
2020/12/04 08:01:51;;;;;;;28.08;16.20;;;-0.50;99.90;;;;;;5095567;28;20498;-58
2020/12/04 08:04:18;;;;;;;27.88;15.90;;;-0.50;99.90;;;;;;5097282;28;20160;-58
2020/12/04 08:06:44;;;;;;;32.08;17.17;;;-0.50;99.90;;;;;;5096690;28;20175;-58
2020/12/04 08:09:15;;;;;;;33.53;16.73;;;-0.40;99.90;;;;;;5097431;28;20254;-58
2020/12/04 08:12:01;;;;;;;32.00;16.83;;;-0.40;99.90;;;;;;5096419;28;20183;-59
2020/12/04 08:14:28;;;;;;;30.17;16.75;;;-0.40;99.90;;;;;;5095934;28;20178;-59
2020/12/04 08:16:57;;;;;;;31.40;16.40;;;-0.30;99.90;;;;;;5095744;28;20198;-61
2020/12/04 08:19:31;;;;;;;30.80;16.27;;;-0.20;99.90;;;;;;5095443;28;20212;-59
2020/12/04 08:22:03;;;;;;;30.95;16.88;;;-0.20;99.90;;;;;;5095916;28;20221;-58
2020/12/04 08:24:32;;;;;;;29.65;16.35;;;-0.10;99.90;;;;;;5096133;28;20183;-59
2020/12/04 08:27:06;;;;;;;31.92;16.92;;;0.00;99.90;;;;;;5096025;28;20163;-59
2020/12/04 08:29:31;;;;;;;31.30;16.83;;;0.20;99.90;;;;;;5095749;28;20148;-59
2020/12/04 08:32:05;;;;;;;27.98;16.08;;;0.20;99.90;;;;;;5095719;28;20503;-59
2020/12/04 08:34:30;;;;;;;28.30;15.98;;;0.30;99.90;;;;;;5095860;28;20168;-58
2020/12/04 08:37:05;;;;;;;31.10;16.60;;;0.40;99.90;;;;;;5095508;28;20193;-58
2020/12/04 08:39:34;;;;;;;27.30;15.48;;;0.50;99.90;;;;;;5095324;28;20173;-59
2020/12/04 08:42:18;;;;;;;26.15;15.23;;;0.60;99.90;;;;;;5095782;28;20164;-59
2020/12/04 08:44:57;;;;;;;28.10;15.68;;;0.60;99.90;;;;;;5095132;28;20188;-59
2020/12/04 08:47:44;;;;;;;28.58;16.45;;;0.70;99.90;;;;;;5095682;28;20548;-58
2020/12/04 08:50:23;;;;;;;27.88;15.23;;;0.80;99.90;;;;;;5095346;28;20619;-59
2020/12/04 08:52:53;;;;;;;26.38;14.75;;;0.90;99.90;;;;;;5095275;28;20194;-59
2020/12/04 08:55:21;;;;;;;27.60;15.35;;;0.90;99.90;;;;;;5095784;28;20160;-59
2020/12/04 08:57:47;;;;;;;29.70;15.98;;;0.90;99.90;;;;;;5095313;28;20544;-59
2020/12/04 09:00:20;;;;;;;32.97;17.08;;;0.90;99.90;;;;;;5094496;28;20187;-59
2020/12/04 09:02:45;;;;;;;29.23;15.02;;;0.90;99.90;;;;;;5095045;28;20658;-58
2020/12/04 09:05:16;;;;;;;29.02;15.68;;;0.90;99.90;;;;;;5095122;28;20163;-58
2020/12/04 09:07:42;;;;;;;29.00;15.20;;;0.90;99.90;;;;;;5095217;28;20225;-59
2020/12/04 09:10:10;;;;;;;27.42;15.40;;;0.90;99.90;;;;;;5095376;28;20175;-58
2020/12/04 09:12:36;;;;;;;26.55;14.65;;;1.00;99.90;;;;;;5095036;28;20580;-59
2020/12/04 09:15:06;;;;;;;25.70;15.13;;;1.00;99.90;;;;;;5095058;28;20171;-59
2020/12/04 09:17:32;;;;;;;25.48;14.55;;;1.10;99.90;;;;;;5095627;28;20676;-59
2020/12/04 09:19:57;;;;;;;26.10;14.48;;;1.10;99.90;;;;;;5094838;28;20171;-59
2020/12/04 09:22:23;;;;;;;26.30;15.32;;;1.10;99.90;;;;;;5095199;28;20243;-58
2020/12/04 09:24:48;;;;;;;25.52;13.82;;;1.20;99.90;;;;;;5094984;28;20167;-58
2020/12/04 09:27:15;;;;;;;28.70;15.30;;;1.20;99.90;;;;;;5095194;28;20167;-59
2020/12/04 09:29:41;;;;;;;25.73;15.10;;;1.30;99.90;;;;;;5094763;28;20615;-59
2020/12/04 09:32:16;;;;;;;28.80;14.65;;;1.30;99.90;;;;;;5094078;28;20172;-59
2020/12/04 09:34:43;;;;;;;26.15;14.68;;;1.30;99.90;;;;;;5094788;28;20151;-59
2020/12/04 09:37:33;;;;;;;25.45;14.45;;;1.30;99.90;;;;;;5094759;28;20206;-59
2020/12/04 09:40:18;;;;;;;25.50;14.07;;;1.40;99.90;;;;;;5095071;28;20156;-59
2020/12/04 09:42:45;;;;;;;25.27;14.60;;;1.40;99.90;;;;;;5094424;28;20191;-59
2020/12/04 09:45:12;;;;;;;25.30;14.52;;;1.50;99.90;;;;;;5094542;28;20172;-59
2020/12/04 09:47:38;;;;;;;26.95;14.88;;;1.60;99.90;;;;;;5094842;28;20183;-59
2020/12/04 09:50:09;;;;;;;24.15;14.10;;;1.60;99.90;;;;;;5094814;28;20504;-59
2020/12/04 09:52:35;;;;;;;25.02;13.77;;;1.70;99.90;;;;;;5095260;28;20151;-59
2020/12/04 09:55:00;;;;;;;23.02;14.10;;;1.80;99.90;;;;;;5094930;28;20178;-59
2020/12/04 09:57:26;;;;;;;24.20;14.07;;;1.90;99.90;;;;;;5093433;28;20210;-59
2020/12/04 09:59:51;;;;;;;25.63;14.45;;;2.00;99.90;;;;;;5094685;28;20187;-59
2020/12/04 10:02:17;;;;;;;26.83;12.48;;;2.10;99.90;;;;;;5094573;28;20171;-58
2020/12/04 10:04:43;;;;;;;24.05;14.13;;;2.10;99.90;;;;;;5094529;28;20213;-59
2020/12/04 10:07:09;;;;;;;24.70;14.63;;;2.10;99.90;;;;;;5094582;28;20171;-59
2020/12/04 10:09:35;;;;;;;25.38;15.10;;;2.20;99.90;;;;;;5094495;28;20164;-59
2020/12/04 10:12:00;;;;;;;25.13;14.23;;;2.20;99.90;;;;;;5094583;28;20171;-59
2020/12/04 10:14:26;;;;;;;22.55;14.10;;;2.30;99.90;;;;;;5094547;28;20194;-59
2020/12/04 10:16:52;;;;;;;25.45;14.13;;;2.30;99.90;;;;;;5094380;28;20198;-59
2020/12/04 10:19:19;;;;;;;23.33;14.30;;;2.40;99.90;;;;;;5094373;28;20164;-59
2020/12/04 10:21:45;;;;;;;25.55;14.95;;;2.40;99.90;;;;;;5094266;28;20595;-59
2020/12/04 10:24:12;;;;;;;21.88;13.65;;;2.50;99.90;;;;;;5094301;28;20191;-58
2020/12/04 10:26:39;;;;;;;23.30;14.55;;;2.50;99.90;;;;;;5094608;28;20233;-59
2020/12/04 10:29:06;;;;;;;23.33;13.82;;;2.60;99.90;;;;;;5094739;28;20176;-58
2020/12/04 10:31:32;;;;;;;25.23;14.75;;;2.70;99.90;;;;;;5094671;28;20171;-58
2020/12/04 10:33:58;;;;;;;23.13;13.65;;;2.70;99.90;;;;;;5094533;28;20175;-59
2020/12/04 10:36:24;;;;;;;22.02;13.75;;;2.70;99.90;;;;;;5094404;28;20195;-59
2020/12/04 10:38:50;;;;;;;22.77;14.32;;;2.80;99.90;;;;;;5093984;28;20171;-59
2020/12/04 10:41:15;;;;;;;27.63;15.05;;;2.80;99.90;;;;;;5094251;28;20170;-59
2020/12/04 10:43:41;;;;;;;23.88;13.95;;;2.90;99.90;;;;;;5097041;28;20168;-59
2020/12/04 10:46:06;;;;;;;22.27;13.63;;;2.90;99.90;;;;;;5096767;28;20183;-59
2020/12/04 10:48:32;;;;;;;21.15;13.27;;;2.90;99.90;;;;;;5099270;28;20186;-59
2020/12/04 10:50:57;;;;;;;23.08;13.65;;;2.90;99.90;;;;;;5100328;28;20159;-59
2020/12/04 10:53:26;;;;;;;24.70;14.15;;;2.90;99.90;;;;;;5104814;28;20215;-58
2020/12/04 10:55:51;;;;;;;22.90;14.20;;;2.90;99.90;;;;;;5106512;28;20175;-58
2020/12/04 10:58:17;;;;;;;23.80;13.98;;;2.90;99.90;;;;;;5107377;28;20194;-59
2020/12/04 11:00:47;;;;;;;28.60;15.02;;;3.00;99.90;;;;;;5107634;28;20163;-58
2020/12/04 11:05:47;;;;;;;23.13;13.38;;;3.00;99.90;;;;;;5109445;28;20257;-59
2020/12/04 11:08:16;;;;;;;23.30;13.45;;;3.00;99.90;;;;;;5108583;28;20219;-57
2020/12/04 11:10:43;;;;;;;21.85;13.90;;;3.00;99.90;;;;;;5098685;28;20246;-58
2020/12/04 11:13:09;;;;;;;21.45;13.77;;;3.00;99.90;;;;;;5097506;28;20205;-58
2020/12/04 11:15:34;;;;;;;22.58;13.85;;;3.00;99.90;;;;;;5097142;28;20199;-58
2020/12/04 11:18:00;;;;;;;22.42;13.82;;;3.10;99.90;;;;;;5097105;28;20294;-58
2020/12/04 11:20:26;;;;;;;20.33;13.57;;;3.10;99.90;;;;;;5096834;28;20191;-58
2020/12/04 11:22:52;;;;;;;21.70;13.80;;;3.10;99.90;;;;;;5097094;28;20244;-58
2020/12/04 11:25:19;;;;;;;23.02;13.25;;;3.00;99.90;;;;;;5096873;28;20175;-58
2020/12/04 11:27:45;;;;;;;21.38;13.85;;;3.00;99.90;;;;;;5095958;28;20168;-58
2020/12/04 11:30:13;;;;;;;21.80;14.02;;;3.00;99.90;;;;;;5096680;28;20672;-58
2020/12/04 11:32:42;;;;;;;25.02;14.27;;;3.00;99.90;;;;;;5097142;28;20270;-58
2020/12/04 11:35:10;;;;;;;23.15;13.55;;;3.00;99.90;;;;;;5096787;28;20607;-58
2020/12/04 11:37:40;;;;;;;25.17;13.80;;;3.00;99.90;;;;;;5097067;28;20195;-58
2020/12/04 11:40:07;;;;;;;22.33;13.07;;;3.00;99.90;;;;;;5096690;28;20167;-58
2020/12/04 11:42:33;;;;;;;24.23;14.40;;;3.00;99.90;;;;;;5096663;28;20161;-58
2020/12/04 11:44:59;;;;;;;20.35;12.98;;;3.00;99.90;;;;;;5096628;28;20190;-58
2020/12/04 11:47:28;;;;;;;22.30;14.07;;;3.00;99.90;;;;;;5096492;28;20178;-58
2020/12/04 11:49:54;;;;;;;24.30;13.43;;;3.00;99.90;;;;;;5095482;28;20174;-58
2020/12/04 11:52:20;;;;;;;23.45;13.60;;;3.00;99.90;;;;;;5096612;28;20500;-58
2020/12/04 11:54:46;;;;;;;20.77;12.43;;;3.00;99.90;;;;;;5095600;28;20165;-58
2020/12/04 11:57:12;;;;;;;21.73;13.90;;;3.00;99.90;;;;;;5096543;28;20195;-58
2020/12/04 11:59:37;;;;;;;22.17;13.55;;;3.10;99.90;;;;;;5096740;28;20163;-58
2020/12/04 12:02:03;;;;;;;25.80;14.20;;;3.00;99.90;;;;;;5096674;28;20254;-58
2020/12/04 12:04:29;;;;;;;22.10;12.52;;;3.10;99.90;;;;;;5096255;28;20199;-58
2020/12/04 12:06:55;;;;;;;21.95;13.23;;;3.10;99.90;;;;;;5096651;28;20179;-58
2020/12/04 12:09:20;;;;;;;24.00;14.30;;;3.20;99.90;;;;;;5096248;28;20603;-58
2020/12/04 12:11:46;;;;;;;24.45;13.90;;;3.20;99.90;;;;;;5096126;28;20187;-58
2020/12/04 12:14:11;;;;;;;20.17;12.52;;;3.20;99.90;;;;;;5096601;28;20226;-58
2020/12/04 12:16:37;;;;;;;20.65;12.57;;;3.30;99.90;;;;;;5095835;28;20536;-58
2020/12/04 12:19:02;;;;;;;22.80;14.00;;;3.30;99.90;;;;;;5096215;28;20258;-58
2020/12/04 12:21:29;;;;;;;21.23;14.18;;;3.30;99.90;;;;;;5095871;28;20229;-58
2020/12/04 12:23:54;;;;;;;22.00;13.07;;;3.30;99.90;;;;;;5096060;28;20187;-58
2020/12/04 12:26:20;;;;;;;22.77;12.82;;;3.30;99.90;;;;;;5095878;28;20167;-58
2020/12/04 12:28:46;;;;;;;19.83;12.32;;;3.30;99.90;;;;;;5095719;28;20170;-58
2020/12/04 12:31:11;;;;;;;22.65;13.63;;;3.40;99.90;;;;;;5095657;28;20176;-58
2020/12/04 12:33:37;;;;;;;24.45;14.45;;;3.40;99.90;;;;;;5095795;28;20254;-58
2020/12/04 12:36:02;;;;;;;21.42;13.10;;;3.40;99.90;;;;;;5095486;28;20195;-58
2020/12/04 12:38:28;;;;;;;22.75;13.05;;;3.40;99.90;;;;;;5095916;28;20163;-59